sensor_id;sensor_type;location;lat;lon;timestamp;temperature;humidity
67868;SHT31;54672;46.096;14.470;2023-02-17T00:01:57;1.71;92.72
67868;SHT31;54672;46.096;14.470;2023-02-17T00:04:23;1.64;92.90
67868;SHT31;54672;46.096;14.470;2023-02-17T00:06:48;1.64;93.09
67868;SHT31;54672;46.096;14.470;2023-02-17T00:09:14;1.70;93.09
67868;SHT31;54672;46.096;14.470;2023-02-17T00:11:39;1.65;93.06
67868;SHT31;54672;46.096;14.470;2023-02-17T00:14:05;1.58;93.03
67868;SHT31;54672;46.096;14.470;2023-02-17T00:16:30;1.54;93.27
67868;SHT31;54672;46.096;14.470;2023-02-17T00:19:00;1.55;93.18
67868;SHT31;54672;46.096;14.470;2023-02-17T00:21:28;1.53;93.05
67868;SHT31;54672;46.096;14.470;2023-02-17T00:23:56;1.55;92.96
67868;SHT31;54672;46.096;14.470;2023-02-17T00:26:21;1.50;92.82
67868;SHT31;54672;46.096;14.470;2023-02-17T00:28:47;1.41;93.07
67868;SHT31;54672;46.096;14.470;2023-02-17T00:31:19;1.39;93.16
67868;SHT31;54672;46.096;14.470;2023-02-17T00:33:45;1.36;93.23
67868;SHT31;54672;46.096;14.470;2023-02-17T00:36:13;1.36;93.20
67868;SHT31;54672;46.096;14.470;2023-02-17T00:38:39;1.41;93.29
67868;SHT31;54672;46.096;14.470;2023-02-17T00:41:04;1.43;93.13
67868;SHT31;54672;46.096;14.470;2023-02-17T00:43:30;1.54;92.78
67868;SHT31;54672;46.096;14.470;2023-02-17T00:45:56;1.55;92.66
67868;SHT31;54672;46.096;14.470;2023-02-17T00:48:21;1.72;91.96
67868;SHT31;54672;46.096;14.470;2023-02-17T00:50:47;1.64;92.07
67868;SHT31;54672;46.096;14.470;2023-02-17T00:53:12;1.51;92.53
67868;SHT31;54672;46.096;14.470;2023-02-17T00:55:38;1.44;92.72
67868;SHT31;54672;46.096;14.470;2023-02-17T00:58:03;1.54;92.63
67868;SHT31;54672;46.096;14.470;2023-02-17T01:00:29;1.58;92.49
67868;SHT31;54672;46.096;14.470;2023-02-17T01:02:54;1.43;92.53
67868;SHT31;54672;46.096;14.470;2023-02-17T01:05:20;1.41;92.68
67868;SHT31;54672;46.096;14.470;2023-02-17T01:07:45;1.40;92.63
67868;SHT31;54672;46.096;14.470;2023-02-17T01:10:11;1.36;92.77
67868;SHT31;54672;46.096;14.470;2023-02-17T01:12:37;1.29;93.04
67868;SHT31;54672;46.096;14.470;2023-02-17T01:15:02;1.34;93.04
67868;SHT31;54672;46.096;14.470;2023-02-17T01:17:28;1.37;92.84
67868;SHT31;54672;46.096;14.470;2023-02-17T01:19:53;1.27;92.89
67868;SHT31;54672;46.096;14.470;2023-02-17T01:22:19;1.13;93.40
67868;SHT31;54672;46.096;14.470;2023-02-17T01:24:44;1.06;93.57
67868;SHT31;54672;46.096;14.470;2023-02-17T01:27:10;0.99;93.85
67868;SHT31;54672;46.096;14.470;2023-02-17T01:29:35;0.97;93.89
67868;SHT31;54672;46.096;14.470;2023-02-17T01:32:00;1.02;94.00
67868;SHT31;54672;46.096;14.470;2023-02-17T01:34:26;0.92;94.02
67868;SHT31;54672;46.096;14.470;2023-02-17T01:36:51;0.89;94.02
67868;SHT31;54672;46.096;14.470;2023-02-17T01:39:17;0.91;94.19
67868;SHT31;54672;46.096;14.470;2023-02-17T01:41:43;0.88;94.32
67868;SHT31;54672;46.096;14.470;2023-02-17T01:44:16;0.95;94.18
67868;SHT31;54672;46.096;14.470;2023-02-17T01:46:47;0.92;94.35
67868;SHT31;54672;46.096;14.470;2023-02-17T01:49:37;0.96;94.26
67868;SHT31;54672;46.096;14.470;2023-02-17T01:52:14;0.95;94.33
67868;SHT31;54672;46.096;14.470;2023-02-17T01:54:48;0.93;94.45
67868;SHT31;54672;46.096;14.470;2023-02-17T01:57:17;0.97;94.47
67868;SHT31;54672;46.096;14.470;2023-02-17T01:59:44;0.93;94.55
67868;SHT31;54672;46.096;14.470;2023-02-17T02:02:10;0.91;94.51
67868;SHT31;54672;46.096;14.470;2023-02-17T02:04:38;0.85;94.62
67868;SHT31;54672;46.096;14.470;2023-02-17T02:07:10;0.82;94.56
67868;SHT31;54672;46.096;14.470;2023-02-17T02:09:41;0.76;94.64
67868;SHT31;54672;46.096;14.470;2023-02-17T02:12:18;0.81;94.65
67868;SHT31;54672;46.096;14.470;2023-02-17T02:14:44;0.85;94.48
67868;SHT31;54672;46.096;14.470;2023-02-17T02:17:27;0.83;94.56
67868;SHT31;54672;46.096;14.470;2023-02-17T02:34:29;0.64;94.97
67868;SHT31;54672;46.096;14.470;2023-02-17T02:37:05;0.61;94.99
67868;SHT31;54672;46.096;14.470;2023-02-17T02:39:38;0.68;95.09
67868;SHT31;54672;46.096;14.470;2023-02-17T02:42:08;0.64;95.22
67868;SHT31;54672;46.096;14.470;2023-02-17T02:44:34;0.64;95.33
67868;SHT31;54672;46.096;14.470;2023-02-17T02:47:01;0.58;95.34
67868;SHT31;54672;46.096;14.470;2023-02-17T02:49:28;0.52;95.46
67868;SHT31;54672;46.096;14.470;2023-02-17T02:52:07;0.52;95.49
67868;SHT31;54672;46.096;14.470;2023-02-17T03:00:18;0.55;95.27
67868;SHT31;54672;46.096;14.470;2023-02-17T03:03:07;0.55;95.31
67868;SHT31;54672;46.096;14.470;2023-02-17T03:08:43;0.51;95.43
67868;SHT31;54672;46.096;14.470;2023-02-17T03:11:11;0.64;95.18
67868;SHT31;54672;46.096;14.470;2023-02-17T03:13:37;0.60;95.45
67868;SHT31;54672;46.096;14.470;2023-02-17T03:16:05;0.58;95.49
67868;SHT31;54672;46.096;14.470;2023-02-17T03:18:31;0.62;95.55
67868;SHT31;54672;46.096;14.470;2023-02-17T03:21:03;0.64;95.54
67868;SHT31;54672;46.096;14.470;2023-02-17T03:23:30;0.61;95.64
67868;SHT31;54672;46.096;14.470;2023-02-17T03:25:55;0.65;95.91
67868;SHT31;54672;46.096;14.470;2023-02-17T03:28:23;0.68;95.75
67868;SHT31;54672;46.096;14.470;2023-02-17T03:30:48;0.72;95.58
67868;SHT31;54672;46.096;14.470;2023-02-17T03:33:14;0.85;95.27
67868;SHT31;54672;46.096;14.470;2023-02-17T03:35:39;0.92;95.29
67868;SHT31;54672;46.096;14.470;2023-02-17T03:38:04;0.88;95.30
67868;SHT31;54672;46.096;14.470;2023-02-17T03:40:30;0.83;95.42
67868;SHT31;54672;46.096;14.470;2023-02-17T03:42:55;0.79;95.50
67868;SHT31;54672;46.096;14.470;2023-02-17T03:45:22;0.65;95.71
67868;SHT31;54672;46.096;14.470;2023-02-17T03:47:47;0.69;95.87
67868;SHT31;54672;46.096;14.470;2023-02-17T03:50:13;0.65;95.83
67868;SHT31;54672;46.096;14.470;2023-02-17T03:52:38;0.68;95.92
67868;SHT31;54672;46.096;14.470;2023-02-17T03:55:04;0.73;95.86
67868;SHT31;54672;46.096;14.470;2023-02-17T03:57:30;0.78;95.84
67868;SHT31;54672;46.096;14.470;2023-02-17T03:59:56;0.85;95.66
67868;SHT31;54672;46.096;14.470;2023-02-17T04:02:21;0.88;95.76
67868;SHT31;54672;46.096;14.470;2023-02-17T04:04:47;0.91;95.68
67868;SHT31;54672;46.096;14.470;2023-02-17T04:07:12;0.96;95.59
67868;SHT31;54672;46.096;14.470;2023-02-17T04:09:38;1.00;95.45
67868;SHT31;54672;46.096;14.470;2023-02-17T04:12:03;0.89;95.75
67868;SHT31;54672;46.096;14.470;2023-02-17T04:14:29;0.86;95.81
67868;SHT31;54672;46.096;14.470;2023-02-17T04:16:54;0.82;96.00
67868;SHT31;54672;46.096;14.470;2023-02-17T04:19:20;0.72;96.13
67868;SHT31;54672;46.096;14.470;2023-02-17T04:21:45;0.78;96.09
67868;SHT31;54672;46.096;14.470;2023-02-17T04:24:10;0.83;95.96
67868;SHT31;54672;46.096;14.470;2023-02-17T04:26:36;0.93;95.94
67868;SHT31;54672;46.096;14.470;2023-02-17T04:29:03;1.02;95.79
67868;SHT31;54672;46.096;14.470;2023-02-17T04:31:29;0.89;95.79
67868;SHT31;54672;46.096;14.470;2023-02-17T04:33:54;0.83;95.64
67868;SHT31;54672;46.096;14.470;2023-02-17T04:36:20;0.71;95.82
67868;SHT31;54672;46.096;14.470;2023-02-17T04:38:45;0.61;96.20
67868;SHT31;54672;46.096;14.470;2023-02-17T04:41:10;0.55;96.42
67868;SHT31;54672;46.096;14.470;2023-02-17T04:43:36;0.51;96.57
67868;SHT31;54672;46.096;14.470;2023-02-17T04:46:01;0.58;96.57
67868;SHT31;54672;46.096;14.470;2023-02-17T04:48:27;0.58;96.64
67868;SHT31;54672;46.096;14.470;2023-02-17T04:50:52;0.51;96.54
67868;SHT31;54672;46.096;14.470;2023-02-17T04:53:18;0.51;96.73
67868;SHT31;54672;46.096;14.470;2023-02-17T04:55:47;0.45;96.70
67868;SHT31;54672;46.096;14.470;2023-02-17T04:58:14;0.47;96.63
67868;SHT31;54672;46.096;14.470;2023-02-17T05:00:39;0.72;96.52
67868;SHT31;54672;46.096;14.470;2023-02-17T05:03:04;0.86;96.32
67868;SHT31;54672;46.096;14.470;2023-02-17T05:05:30;0.97;96.21
67868;SHT31;54672;46.096;14.470;2023-02-17T05:07:56;0.89;95.68
67868;SHT31;54672;46.096;14.470;2023-02-17T05:10:21;0.72;95.86
67868;SHT31;54672;46.096;14.470;2023-02-17T05:12:46;0.48;96.29
67868;SHT31;54672;46.096;14.470;2023-02-17T05:15:12;0.37;96.63
67868;SHT31;54672;46.096;14.470;2023-02-17T05:17:38;0.31;96.94
67868;SHT31;54672;46.096;14.470;2023-02-17T05:20:04;0.31;96.97
67868;SHT31;54672;46.096;14.470;2023-02-17T05:22:30;0.55;97.42
67868;SHT31;54672;46.096;14.470;2023-02-17T05:24:56;0.79;96.95
67868;SHT31;54672;46.096;14.470;2023-02-17T05:27:21;1.16;96.79
67868;SHT31;54672;46.096;14.470;2023-02-17T05:29:47;1.29;96.38
67868;SHT31;54672;46.096;14.470;2023-02-17T05:32:12;1.34;96.15
67868;SHT31;54672;46.096;14.470;2023-02-17T05:34:38;1.30;96.13
67868;SHT31;54672;46.096;14.470;2023-02-17T05:37:03;1.29;96.04
67868;SHT31;54672;46.096;14.470;2023-02-17T05:39:29;1.22;96.09
67868;SHT31;54672;46.096;14.470;2023-02-17T05:41:54;1.02;96.11
67868;SHT31;54672;46.096;14.470;2023-02-17T05:44:20;1.03;96.41
67868;SHT31;54672;46.096;14.470;2023-02-17T05:46:46;1.06;96.41
67868;SHT31;54672;46.096;14.470;2023-02-17T05:49:11;1.09;96.51
67868;SHT31;54672;46.096;14.470;2023-02-17T05:51:37;1.09;96.78
67868;SHT31;54672;46.096;14.470;2023-02-17T05:54:02;0.91;96.74
67868;SHT31;54672;46.096;14.470;2023-02-17T05:56:28;0.86;97.06
67868;SHT31;54672;46.096;14.470;2023-02-17T05:58:53;0.88;97.05
67868;SHT31;54672;46.096;14.470;2023-02-17T06:01:19;0.88;97.05
67868;SHT31;54672;46.096;14.470;2023-02-17T06:03:44;0.83;96.90
67868;SHT31;54672;46.096;14.470;2023-02-17T06:06:10;0.79;96.57
67868;SHT31;54672;46.096;14.470;2023-02-17T06:08:35;0.76;96.45
67868;SHT31;54672;46.096;14.470;2023-02-17T06:11:01;0.76;96.49
67868;SHT31;54672;46.096;14.470;2023-02-17T06:13:27;0.78;96.40
67868;SHT31;54672;46.096;14.470;2023-02-17T06:15:52;0.76;96.16
67868;SHT31;54672;46.096;14.470;2023-02-17T06:18:18;0.75;96.22
67868;SHT31;54672;46.096;14.470;2023-02-17T06:20:43;0.92;96.08
67868;SHT31;54672;46.096;14.470;2023-02-17T06:23:09;0.85;95.65
67868;SHT31;54672;46.096;14.470;2023-02-17T06:25:35;0.78;95.46
67868;SHT31;54672;46.096;14.470;2023-02-17T06:28:01;0.79;95.43
67868;SHT31;54672;46.096;14.470;2023-02-17T06:30:26;0.91;95.15
67868;SHT31;54672;46.096;14.470;2023-02-17T06:32:51;1.34;95.00
67868;SHT31;54672;46.096;14.470;2023-02-17T06:35:17;1.82;94.25
67868;SHT31;54672;46.096;14.470;2023-02-17T06:37:43;2.26;92.51
67868;SHT31;54672;46.096;14.470;2023-02-17T06:40:09;2.61;90.22
67868;SHT31;54672;46.096;14.470;2023-02-17T06:42:35;2.32;88.65
67868;SHT31;54672;46.096;14.470;2023-02-17T06:45:01;1.55;92.50
67868;SHT31;54672;46.096;14.470;2023-02-17T06:47:29;1.40;93.15
67868;SHT31;54672;46.096;14.470;2023-02-17T06:49:55;1.47;93.05
67868;SHT31;54672;46.096;14.470;2023-02-17T06:52:20;2.22;92.27
67868;SHT31;54672;46.096;14.470;2023-02-17T06:54:46;2.53;90.86
67868;SHT31;54672;46.096;14.470;2023-02-17T06:57:11;2.29;89.79
67868;SHT31;54672;46.096;14.470;2023-02-17T06:59:37;1.85;91.73
67868;SHT31;54672;46.096;14.470;2023-02-17T07:02:02;1.84;91.45
67868;SHT31;54672;46.096;14.470;2023-02-17T07:04:27;1.71;91.40
67868;SHT31;54672;46.096;14.470;2023-02-17T07:06:53;1.84;91.27
67868;SHT31;54672;46.096;14.470;2023-02-17T07:09:18;1.92;90.85
67868;SHT31;54672;46.096;14.470;2023-02-17T07:11:44;1.78;91.80
67868;SHT31;54672;46.096;14.470;2023-02-17T07:14:09;2.34;89.92
67868;SHT31;54672;46.096;14.470;2023-02-17T07:16:35;2.63;88.23
67868;SHT31;54672;46.096;14.470;2023-02-17T07:19:00;1.91;91.06
67868;SHT31;54672;46.096;14.470;2023-02-17T07:21:26;2.47;90.48
67868;SHT31;54672;46.096;14.470;2023-02-17T07:23:51;2.44;90.20
67868;SHT31;54672;46.096;14.470;2023-02-17T07:26:16;2.52;89.79
67868;SHT31;54672;46.096;14.470;2023-02-17T07:28:42;2.71;89.80
67868;SHT31;54672;46.096;14.470;2023-02-17T07:31:13;2.87;89.66
67868;SHT31;54672;46.096;14.470;2023-02-17T07:33:39;3.60;87.90
67868;SHT31;54672;46.096;14.470;2023-02-17T07:36:10;4.82;86.06
67868;SHT31;54672;46.096;14.470;2023-02-17T07:38:36;6.12;79.66
67868;SHT31;54672;46.096;14.470;2023-02-17T07:41:09;7.01;76.48
67868;SHT31;54672;46.096;14.470;2023-02-17T07:43:35;7.63;73.54
67868;SHT31;54672;46.096;14.470;2023-02-17T07:46:01;7.98;72.79
67868;SHT31;54672;46.096;14.470;2023-02-17T07:48:27;6.54;75.06
67868;SHT31;54672;46.096;14.470;2023-02-17T07:50:53;5.43;80.17
67868;SHT31;54672;46.096;14.470;2023-02-17T07:53:18;6.70;77.37
67868;SHT31;54672;46.096;14.470;2023-02-17T07:55:44;7.19;74.65
67868;SHT31;54672;46.096;14.470;2023-02-17T07:58:09;7.52;73.08
67868;SHT31;54672;46.096;14.470;2023-02-17T08:00:35;7.87;72.81
67868;SHT31;54672;46.096;14.470;2023-02-17T08:03:00;8.04;72.81
67868;SHT31;54672;46.096;14.470;2023-02-17T08:05:25;7.87;72.55
67868;SHT31;54672;46.096;14.470;2023-02-17T08:07:51;5.98;79.05
67868;SHT31;54672;46.096;14.470;2023-02-17T08:10:37;5.24;82.16
67868;SHT31;54672;46.096;14.470;2023-02-17T08:13:21;4.89;83.80
67868;SHT31;54672;46.096;14.470;2023-02-17T08:15:47;5.09;83.67
67868;SHT31;54672;46.096;14.470;2023-02-17T08:18:12;5.58;82.48
67868;SHT31;54672;46.096;14.470;2023-02-17T08:20:38;5.72;82.02
67868;SHT31;54672;46.096;14.470;2023-02-17T08:23:03;6.27;79.95
67868;SHT31;54672;46.096;14.470;2023-02-17T08:25:33;6.74;78.20
67868;SHT31;54672;46.096;14.470;2023-02-17T08:28:00;7.04;76.67
67868;SHT31;54672;46.096;14.470;2023-02-17T08:30:25;7.42;76.21
67868;SHT31;54672;46.096;14.470;2023-02-17T08:32:51;7.67;76.73
67868;SHT31;54672;46.096;14.470;2023-02-17T08:35:16;6.91;78.04
67868;SHT31;54672;46.096;14.470;2023-02-17T08:37:43;7.69;76.14
67868;SHT31;54672;46.096;14.470;2023-02-17T08:40:09;8.46;74.27
67868;SHT31;54672;46.096;14.470;2023-02-17T08:42:35;8.45;73.19
67868;SHT31;54672;46.096;14.470;2023-02-17T08:45:02;6.92;77.34
67868;SHT31;54672;46.096;14.470;2023-02-17T08:47:28;6.15;80.03
67868;SHT31;54672;46.096;14.470;2023-02-17T08:49:53;5.58;82.26
67868;SHT31;54672;46.096;14.470;2023-02-17T08:52:19;5.48;82.68
67868;SHT31;54672;46.096;14.470;2023-02-17T08:54:44;5.66;81.91
67868;SHT31;54672;46.096;14.470;2023-02-17T08:57:10;6.26;80.04
67868;SHT31;54672;46.096;14.470;2023-02-17T08:59:35;6.37;80.00
67868;SHT31;54672;46.096;14.470;2023-02-17T09:02:00;6.55;79.51
67868;SHT31;54672;46.096;14.470;2023-02-17T09:04:26;6.65;78.87
67868;SHT31;54672;46.096;14.470;2023-02-17T09:06:53;6.84;78.74
67868;SHT31;54672;46.096;14.470;2023-02-17T09:09:22;6.67;78.81
67868;SHT31;54672;46.096;14.470;2023-02-17T09:11:51;6.80;78.40
67868;SHT31;54672;46.096;14.470;2023-02-17T09:14:16;6.95;78.16
67868;SHT31;54672;46.096;14.470;2023-02-17T09:16:42;7.02;77.95
67868;SHT31;54672;46.096;14.470;2023-02-17T09:19:07;6.94;78.56
67868;SHT31;54672;46.096;14.470;2023-02-17T09:21:33;7.26;77.75
67868;SHT31;54672;46.096;14.470;2023-02-17T09:23:58;7.62;76.37
67868;SHT31;54672;46.096;14.470;2023-02-17T09:26:24;7.85;76.17
67868;SHT31;54672;46.096;14.470;2023-02-17T09:28:49;7.99;74.83
67868;SHT31;54672;46.096;14.470;2023-02-17T09:31:23;7.98;75.65
67868;SHT31;54672;46.096;14.470;2023-02-17T09:33:49;8.08;75.52
67868;SHT31;54672;46.096;14.470;2023-02-17T09:36:32;8.26;74.55
67868;SHT31;54672;46.096;14.470;2023-02-17T09:38:58;8.28;74.93
67868;SHT31;54672;46.096;14.470;2023-02-17T09:44:05;8.62;73.35
67868;SHT31;54672;46.096;14.470;2023-02-17T09:46:35;8.69;73.14
67868;SHT31;54672;46.096;14.470;2023-02-17T09:49:11;8.70;73.09
67868;SHT31;54672;46.096;14.470;2023-02-17T09:54:31;8.88;72.85
67868;SHT31;54672;46.096;14.470;2023-02-17T09:57:00;9.10;72.07
67868;SHT31;54672;46.096;14.470;2023-02-17T09:59:42;9.08;72.11
67868;SHT31;54672;46.096;14.470;2023-02-17T10:05:08;9.14;72.65
67868;SHT31;54672;46.096;14.470;2023-02-17T10:07:49;9.21;72.54
67868;SHT31;54672;46.096;14.470;2023-02-17T10:10:21;9.25;71.98
67868;SHT31;54672;46.096;14.470;2023-02-17T10:12:51;9.41;72.17
67868;SHT31;54672;46.096;14.470;2023-02-17T10:15:23;9.38;72.40
67868;SHT31;54672;46.096;14.470;2023-02-17T10:20:36;9.65;72.15
67868;SHT31;54672;46.096;14.470;2023-02-17T10:23:17;9.79;71.53
67868;SHT31;54672;46.096;14.470;2023-02-17T10:31:04;10.17;70.79
67868;SHT31;54672;46.096;14.470;2023-02-17T10:33:49;10.32;71.13
67868;SHT31;54672;46.096;14.470;2023-02-17T10:39:44;10.61;69.85
67868;SHT31;54672;46.096;14.470;2023-02-17T10:42:33;10.69;69.65
67868;SHT31;54672;46.096;14.470;2023-02-17T10:45:22;10.27;70.84
67868;SHT31;54672;46.096;14.470;2023-02-17T10:47:56;10.36;70.50
67868;SHT31;54672;46.096;14.470;2023-02-17T10:50:22;10.64;70.22
67868;SHT31;54672;46.096;14.470;2023-02-17T10:52:49;11.04;69.28
67868;SHT31;54672;46.096;14.470;2023-02-17T10:55:37;11.29;67.92
67868;SHT31;54672;46.096;14.470;2023-02-17T10:58:19;11.26;68.37
67868;SHT31;54672;46.096;14.470;2023-02-17T11:00:51;11.70;67.43
67868;SHT31;54672;46.096;14.470;2023-02-17T11:03:29;12.02;66.52
67868;SHT31;54672;46.096;14.470;2023-02-17T11:06:03;12.41;64.69
67868;SHT31;54672;46.096;14.470;2023-02-17T11:08:36;12.55;64.51
67868;SHT31;54672;46.096;14.470;2023-02-17T11:11:23;12.67;63.72
67868;SHT31;54672;46.096;14.470;2023-02-17T11:16:37;12.72;64.40
67868;SHT31;54672;46.096;14.470;2023-02-17T11:19:05;12.60;63.66
67868;SHT31;54672;46.096;14.470;2023-02-17T11:21:31;12.94;63.10
67868;SHT31;54672;46.096;14.470;2023-02-17T11:24:03;13.06;62.36
67868;SHT31;54672;46.096;14.470;2023-02-17T11:26:33;13.03;62.03
67868;SHT31;54672;46.096;14.470;2023-02-17T11:29:21;12.69;63.15
67868;SHT31;54672;46.096;14.470;2023-02-17T11:31:57;12.39;63.94
67868;SHT31;54672;46.096;14.470;2023-02-17T11:34:26;12.72;63.65
67868;SHT31;54672;46.096;14.470;2023-02-17T11:39:25;12.96;62.94
67868;SHT31;54672;46.096;14.470;2023-02-17T11:41:50;12.96;62.57
67868;SHT31;54672;46.096;14.470;2023-02-17T11:44:27;13.03;62.34
67868;SHT31;54672;46.096;14.470;2023-02-17T11:47:07;12.69;62.17
67868;SHT31;54672;46.096;14.470;2023-02-17T11:49:49;12.99;62.21
67868;SHT31;54672;46.096;14.470;2023-02-17T11:52:47;13.13;61.67
67868;SHT31;54672;46.096;14.470;2023-02-17T12:00:54;13.03;61.60
67868;SHT31;54672;46.096;14.470;2023-02-17T12:09:05;12.80;61.90
67868;SHT31;54672;46.096;14.470;2023-02-17T12:14:41;13.13;61.72
67868;SHT31;54672;46.096;14.470;2023-02-17T12:17:25;13.10;61.82
67868;SHT31;54672;46.096;14.470;2023-02-17T12:23:11;13.28;61.39
67868;SHT31;54672;46.096;14.470;2023-02-17T12:25:48;13.17;62.23
67868;SHT31;54672;46.096;14.470;2023-02-17T12:36:47;13.31;61.54
67868;SHT31;54672;46.096;14.470;2023-02-17T12:39:22;13.31;61.67
67868;SHT31;54672;46.096;14.470;2023-02-17T12:44:32;13.20;61.75
67868;SHT31;54672;46.096;14.470;2023-02-17T12:47:04;12.90;62.83
67868;SHT31;54672;46.096;14.470;2023-02-17T12:49:36;13.17;62.14
67868;SHT31;54672;46.096;14.470;2023-02-17T12:54:55;13.18;61.92
67868;SHT31;54672;46.096;14.470;2023-02-17T12:57:26;12.99;61.93
67868;SHT31;54672;46.096;14.470;2023-02-17T12:59:55;13.17;61.69
67868;SHT31;54672;46.096;14.470;2023-02-17T13:02:24;13.11;61.48
67868;SHT31;54672;46.096;14.470;2023-02-17T13:04:52;13.18;60.96
67868;SHT31;54672;46.096;14.470;2023-02-17T13:10:18;13.02;61.58
67868;SHT31;54672;46.096;14.470;2023-02-17T13:12:59;13.07;61.28
67868;SHT31;54672;46.096;14.470;2023-02-17T13:15:35;13.23;60.85
67868;SHT31;54672;46.096;14.470;2023-02-17T13:18:06;13.38;60.86
67868;SHT31;54672;46.096;14.470;2023-02-17T13:20:56;13.31;59.91
67868;SHT31;54672;46.096;14.470;2023-02-17T13:23:32;13.27;60.17
67868;SHT31;54672;46.096;14.470;2023-02-17T13:28:41;13.28;60.24
67868;SHT31;54672;46.096;14.470;2023-02-17T13:31:10;12.94;60.18
67868;SHT31;54672;46.096;14.470;2023-02-17T13:33:53;13.10;60.43
67868;SHT31;54672;46.096;14.470;2023-02-17T13:36:40;12.99;60.33
67868;SHT31;54672;46.096;14.470;2023-02-17T13:41:53;13.08;60.33
67868;SHT31;54672;46.096;14.470;2023-02-17T13:46:44;12.99;61.11
67868;SHT31;54672;46.096;14.470;2023-02-17T13:49:22;12.66;61.86
67868;SHT31;54672;46.096;14.470;2023-02-17T13:51:48;12.72;61.20
67868;SHT31;54672;46.096;14.470;2023-02-17T13:54:19;12.50;61.79
67868;SHT31;54672;46.096;14.470;2023-02-17T13:56:50;12.67;61.58
67868;SHT31;54672;46.096;14.470;2023-02-17T13:59:22;12.70;60.91
67868;SHT31;54672;46.096;14.470;2023-02-17T14:01:48;12.67;61.00
67868;SHT31;54672;46.096;14.470;2023-02-17T14:04:18;12.70;60.95
67868;SHT31;54672;46.096;14.470;2023-02-17T14:06:45;12.73;61.08
67868;SHT31;54672;46.096;14.470;2023-02-17T14:09:30;12.62;61.30
67868;SHT31;54672;46.096;14.470;2023-02-17T14:11:57;12.36;62.20
67868;SHT31;54672;46.096;14.470;2023-02-17T14:14:28;12.20;62.73
67868;SHT31;54672;46.096;14.470;2023-02-17T14:17:04;12.10;63.33
67868;SHT31;54672;46.096;14.470;2023-02-17T14:19:42;12.10;63.12
67868;SHT31;54672;46.096;14.470;2023-02-17T14:22:27;11.87;63.77
67868;SHT31;54672;46.096;14.470;2023-02-17T14:25:03;11.80;64.12
67868;SHT31;54672;46.096;14.470;2023-02-17T14:27:41;11.99;64.15
67868;SHT31;54672;46.096;14.470;2023-02-17T14:30:25;12.04;64.09
67868;SHT31;54672;46.096;14.470;2023-02-17T14:33:22;11.81;64.78
67868;SHT31;54672;46.096;14.470;2023-02-17T14:35:50;11.94;64.61
67868;SHT31;54672;46.096;14.470;2023-02-17T14:38:28;11.95;64.46
67868;SHT31;54672;46.096;14.470;2023-02-17T14:40:56;11.85;65.00
67868;SHT31;54672;46.096;14.470;2023-02-17T14:43:22;11.73;65.37
67868;SHT31;54672;46.096;14.470;2023-02-17T14:45:48;11.71;65.29
67868;SHT31;54672;46.096;14.470;2023-02-17T14:48:13;11.69;65.17
67868;SHT31;54672;46.096;14.470;2023-02-17T14:50:39;11.69;65.32
67868;SHT31;54672;46.096;14.470;2023-02-17T14:53:13;11.77;64.82
67868;SHT31;54672;46.096;14.470;2023-02-17T14:55:48;11.81;64.78
67868;SHT31;54672;46.096;14.470;2023-02-17T14:58:20;11.94;64.35
67868;SHT31;54672;46.096;14.470;2023-02-17T15:00:47;11.88;64.72
67868;SHT31;54672;46.096;14.470;2023-02-17T15:03:12;12.02;64.36
67868;SHT31;54672;46.096;14.470;2023-02-17T15:05:38;11.95;64.40
67868;SHT31;54672;46.096;14.470;2023-02-17T15:08:03;11.87;64.79
67868;SHT31;54672;46.096;14.470;2023-02-17T15:10:29;11.81;65.11
67868;SHT31;54672;46.096;14.470;2023-02-17T15:12:55;11.78;65.31
67868;SHT31;54672;46.096;14.470;2023-02-17T15:15:20;11.76;65.49
67868;SHT31;54672;46.096;14.470;2023-02-17T15:17:46;11.71;65.64
67868;SHT31;54672;46.096;14.470;2023-02-17T15:20:13;11.53;66.37
67868;SHT31;54672;46.096;14.470;2023-02-17T15:22:39;11.40;67.10
67868;SHT31;54672;46.096;14.470;2023-02-17T15:25:13;11.18;67.78
67868;SHT31;54672;46.096;14.470;2023-02-17T15:27:39;11.06;68.41
67868;SHT31;54672;46.096;14.470;2023-02-17T15:30:08;10.94;68.89
67868;SHT31;54672;46.096;14.470;2023-02-17T15:32:34;10.75;69.59
67868;SHT31;54672;46.096;14.470;2023-02-17T15:35:00;10.64;70.11
67868;SHT31;54672;46.096;14.470;2023-02-17T15:37:25;10.54;70.46
67868;SHT31;54672;46.096;14.470;2023-02-17T15:39:50;10.50;70.62
67868;SHT31;54672;46.096;14.470;2023-02-17T15:42:16;10.48;70.59
67868;SHT31;54672;46.096;14.470;2023-02-17T15:44:46;10.41;70.83
67868;SHT31;54672;46.096;14.470;2023-02-17T15:47:15;10.30;71.21
67868;SHT31;54672;46.096;14.470;2023-02-17T15:49:41;10.12;71.61
67868;SHT31;54672;46.096;14.470;2023-02-17T15:52:10;10.05;71.91
67868;SHT31;54672;46.096;14.470;2023-02-17T15:54:38;9.95;72.18
67868;SHT31;54672;46.096;14.470;2023-02-17T15:57:05;9.95;72.15
67868;SHT31;54672;46.096;14.470;2023-02-17T15:59:31;9.86;72.38
67868;SHT31;54672;46.096;14.470;2023-02-17T16:01:59;9.78;72.65
67868;SHT31;54672;46.096;14.470;2023-02-17T16:04:26;9.69;73.11
67868;SHT31;54672;46.096;14.470;2023-02-17T16:06:52;9.48;73.63
67868;SHT31;54672;46.096;14.470;2023-02-17T16:09:18;9.56;73.41
67868;SHT31;54672;46.096;14.470;2023-02-17T16:11:49;9.55;73.51
67868;SHT31;54672;46.096;14.470;2023-02-17T16:14:24;9.51;73.47
67868;SHT31;54672;46.096;14.470;2023-02-17T16:16:51;9.44;73.75
67868;SHT31;54672;46.096;14.470;2023-02-17T16:19:17;9.49;73.65
67868;SHT31;54672;46.096;14.470;2023-02-17T16:21:42;9.44;73.60
67868;SHT31;54672;46.096;14.470;2023-02-17T16:24:08;9.45;73.57
67868;SHT31;54672;46.096;14.470;2023-02-17T16:26:35;9.41;73.75
67868;SHT31;54672;46.096;14.470;2023-02-17T16:29:08;9.44;73.63
67868;SHT31;54672;46.096;14.470;2023-02-17T16:31:35;9.31;73.97
67868;SHT31;54672;46.096;14.470;2023-02-17T16:34:00;9.25;74.11
67868;SHT31;54672;46.096;14.470;2023-02-17T16:36:29;9.20;74.22
67868;SHT31;54672;46.096;14.470;2023-02-17T16:38:55;9.07;74.52
67868;SHT31;54672;46.096;14.470;2023-02-17T16:41:20;9.13;74.37
67868;SHT31;54672;46.096;14.470;2023-02-17T16:43:46;9.10;74.46
67868;SHT31;54672;46.096;14.470;2023-02-17T16:46:19;9.07;74.60
67868;SHT31;54672;46.096;14.470;2023-02-17T16:48:46;9.04;74.56
67868;SHT31;54672;46.096;14.470;2023-02-17T16:51:12;8.97;74.74
67868;SHT31;54672;46.096;14.470;2023-02-17T16:53:37;8.93;74.90
67868;SHT31;54672;46.096;14.470;2023-02-17T16:56:13;8.93;74.85
67868;SHT31;54672;46.096;14.470;2023-02-17T16:58:39;8.91;75.01
67868;SHT31;54672;46.096;14.470;2023-02-17T17:01:05;8.83;75.22
67868;SHT31;54672;46.096;14.470;2023-02-17T17:03:40;8.77;75.37
67868;SHT31;54672;46.096;14.470;2023-02-17T17:06:22;8.81;75.45
67868;SHT31;54672;46.096;14.470;2023-02-17T17:08:48;8.77;75.58